sensor_id;sensor_type;location;lat;lon;timestamp;P1;durP1;ratioP1;P2;durP2;ratioP2
21438;SDS011;10880;50.302;18.736;2023-03-14T00:00:59;3.50;;;2.33;;
21438;SDS011;10880;50.302;18.736;2023-03-14T00:03:28;2.17;;;1.97;;
21438;SDS011;10880;50.302;18.736;2023-03-14T00:05:54;4.40;;;2.50;;
21438;SDS011;10880;50.302;18.736;2023-03-14T00:08:21;3.60;;;2.57;;
21438;SDS011;10880;50.302;18.736;2023-03-14T00:10:50;2.53;;;2.20;;
21438;SDS011;10880;50.302;18.736;2023-03-14T00:13:17;3.17;;;2.70;;
21438;SDS011;10880;50.302;18.736;2023-03-14T00:15:43;3.50;;;2.60;;
21438;SDS011;10880;50.302;18.736;2023-03-14T00:18:10;3.87;;;2.80;;
21438;SDS011;10880;50.302;18.736;2023-03-14T00:20:37;4.13;;;2.67;;
21438;SDS011;10880;50.302;18.736;2023-03-14T00:23:03;5.50;;;2.80;;
21438;SDS011;10880;50.302;18.736;2023-03-14T00:25:30;5.90;;;2.90;;
21438;SDS011;10880;50.302;18.736;2023-03-14T00:27:57;4.33;;;2.53;;
21438;SDS011;10880;50.302;18.736;2023-03-14T00:30:23;4.77;;;2.70;;
21438;SDS011;10880;50.302;18.736;2023-03-14T00:32:50;8.23;;;4.00;;
21438;SDS011;10880;50.302;18.736;2023-03-14T00:35:17;6.10;;;3.50;;
21438;SDS011;10880;50.302;18.736;2023-03-14T00:37:43;4.93;;;3.00;;
21438;SDS011;10880;50.302;18.736;2023-03-14T00:40:10;5.80;;;2.90;;
21438;SDS011;10880;50.302;18.736;2023-03-14T00:42:37;4.03;;;2.47;;
21438;SDS011;10880;50.302;18.736;2023-03-14T00:45:04;4.40;;;2.90;;
21438;SDS011;10880;50.302;18.736;2023-03-14T00:47:33;4.13;;;2.90;;
21438;SDS011;10880;50.302;18.736;2023-03-14T00:50:02;4.23;;;2.67;;
21438;SDS011;10880;50.302;18.736;2023-03-14T00:52:28;4.30;;;2.87;;
21438;SDS011;10880;50.302;18.736;2023-03-14T00:54:55;6.77;;;2.97;;
21438;SDS011;10880;50.302;18.736;2023-03-14T00:57:22;4.57;;;3.00;;
21438;SDS011;10880;50.302;18.736;2023-03-14T00:59:50;4.23;;;2.70;;
21438;SDS011;10880;50.302;18.736;2023-03-14T01:02:17;3.43;;;2.50;;
21438;SDS011;10880;50.302;18.736;2023-03-14T01:04:44;3.57;;;2.70;;
21438;SDS011;10880;50.302;18.736;2023-03-14T01:07:10;3.80;;;2.83;;
21438;SDS011;10880;50.302;18.736;2023-03-14T01:09:38;3.90;;;2.80;;
21438;SDS011;10880;50.302;18.736;2023-03-14T01:12:05;6.93;;;3.43;;
21438;SDS011;10880;50.302;18.736;2023-03-14T01:14:32;3.80;;;2.90;;
21438;SDS011;10880;50.302;18.736;2023-03-14T01:16:58;4.70;;;2.70;;
21438;SDS011;10880;50.302;18.736;2023-03-14T01:19:27;3.70;;;2.70;;
21438;SDS011;10880;50.302;18.736;2023-03-14T01:21:54;4.83;;;2.83;;
21438;SDS011;10880;50.302;18.736;2023-03-14T01:24:21;5.17;;;3.30;;
21438;SDS011;10880;50.302;18.736;2023-03-14T01:26:47;3.43;;;2.77;;
21438;SDS011;10880;50.302;18.736;2023-03-14T01:29:14;3.20;;;2.63;;
21438;SDS011;10880;50.302;18.736;2023-03-14T01:31:41;2.23;;;2.03;;
21438;SDS011;10880;50.302;18.736;2023-03-14T01:34:10;3.03;;;2.50;;
21438;SDS011;10880;50.302;18.736;2023-03-14T01:36:37;3.30;;;2.60;;
21438;SDS011;10880;50.302;18.736;2023-03-14T01:39:04;2.97;;;2.67;;
21438;SDS011;10880;50.302;18.736;2023-03-14T01:41:32;3.60;;;2.70;;
21438;SDS011;10880;50.302;18.736;2023-03-14T01:43:59;4.03;;;2.70;;
21438;SDS011;10880;50.302;18.736;2023-03-14T01:49:01;3.93;;;2.60;;
21438;SDS011;10880;50.302;18.736;2023-03-14T01:51:57;2.93;;;2.40;;
21438;SDS011;10880;50.302;18.736;2023-03-14T01:54:34;5.47;;;2.90;;
21438;SDS011;10880;50.302;18.736;2023-03-14T01:59:55;3.80;;;2.63;;
21438;SDS011;10880;50.302;18.736;2023-03-14T02:02:26;3.50;;;2.80;;
21438;SDS011;10880;50.302;18.736;2023-03-14T02:04:54;3.63;;;2.53;;
21438;SDS011;10880;50.302;18.736;2023-03-14T02:07:27;2.83;;;2.40;;
21438;SDS011;10880;50.302;18.736;2023-03-14T02:10:11;2.50;;;2.30;;
21438;SDS011;10880;50.302;18.736;2023-03-14T02:12:38;2.80;;;2.60;;
21438;SDS011;10880;50.302;18.736;2023-03-14T02:15:27;4.00;;;2.43;;
21438;SDS011;10880;50.302;18.736;2023-03-14T02:18:09;2.57;;;2.37;;
21438;SDS011;10880;50.302;18.736;2023-03-14T02:21:05;3.07;;;2.63;;
21438;SDS011;10880;50.302;18.736;2023-03-14T02:23:39;4.43;;;3.10;;
21438;SDS011;10880;50.302;18.736;2023-03-14T02:26:25;3.63;;;2.83;;
21438;SDS011;10880;50.302;18.736;2023-03-14T02:28:58;2.50;;;2.20;;
21438;SDS011;10880;50.302;18.736;2023-03-14T02:31:25;2.33;;;2.13;;
21438;SDS011;10880;50.302;18.736;2023-03-14T02:33:52;2.20;;;2.03;;
21438;SDS011;10880;50.302;18.736;2023-03-14T02:36:19;3.33;;;2.10;;
21438;SDS011;10880;50.302;18.736;2023-03-14T02:41:14;2.70;;;2.50;;
21438;SDS011;10880;50.302;18.736;2023-03-14T02:43:47;2.53;;;2.10;;
21438;SDS011;10880;50.302;18.736;2023-03-14T02:46:16;2.90;;;2.50;;
21438;SDS011;10880;50.302;18.736;2023-03-14T02:48:51;2.30;;;2.10;;
21438;SDS011;10880;50.302;18.736;2023-03-14T02:51:22;3.40;;;2.80;;
21438;SDS011;10880;50.302;18.736;2023-03-14T02:53:51;3.87;;;2.67;;
21438;SDS011;10880;50.302;18.736;2023-03-14T02:56:19;3.70;;;2.90;;
21438;SDS011;10880;50.302;18.736;2023-03-14T02:58:46;2.37;;;2.17;;
21438;SDS011;10880;50.302;18.736;2023-03-14T03:01:32;3.30;;;2.60;;
21438;SDS011;10880;50.302;18.736;2023-03-14T03:04:00;5.07;;;3.13;;
21438;SDS011;10880;50.302;18.736;2023-03-14T03:06:26;3.43;;;2.90;;
21438;SDS011;10880;50.302;18.736;2023-03-14T03:08:53;3.73;;;2.63;;
21438;SDS011;10880;50.302;18.736;2023-03-14T03:11:20;3.53;;;2.40;;
21438;SDS011;10880;50.302;18.736;2023-03-14T03:13:46;2.90;;;2.50;;
21438;SDS011;10880;50.302;18.736;2023-03-14T03:16:14;2.47;;;2.20;;
21438;SDS011;10880;50.302;18.736;2023-03-14T03:18:41;2.90;;;2.40;;
21438;SDS011;10880;50.302;18.736;2023-03-14T03:21:07;3.13;;;2.40;;
21438;SDS011;10880;50.302;18.736;2023-03-14T03:23:35;2.67;;;2.20;;
21438;SDS011;10880;50.302;18.736;2023-03-14T03:26:03;2.07;;;1.87;;
21438;SDS011;10880;50.302;18.736;2023-03-14T03:28:33;2.60;;;2.00;;
21438;SDS011;10880;50.302;18.736;2023-03-14T03:31:05;2.80;;;2.30;;
21438;SDS011;10880;50.302;18.736;2023-03-14T03:33:35;3.53;;;2.13;;
21438;SDS011;10880;50.302;18.736;2023-03-14T03:36:02;2.30;;;2.10;;
21438;SDS011;10880;50.302;18.736;2023-03-14T03:38:33;2.33;;;2.00;;
21438;SDS011;10880;50.302;18.736;2023-03-14T03:41:04;2.20;;;2.00;;
21438;SDS011;10880;50.302;18.736;2023-03-14T03:43:32;3.13;;;2.20;;
21438;SDS011;10880;50.302;18.736;2023-03-14T03:46:03;3.20;;;2.60;;
21438;SDS011;10880;50.302;18.736;2023-03-14T03:48:31;2.70;;;2.23;;
21438;SDS011;10880;50.302;18.736;2023-03-14T03:51:01;2.77;;;2.43;;
21438;SDS011;10880;50.302;18.736;2023-03-14T03:53:28;2.87;;;2.20;;
21438;SDS011;10880;50.302;18.736;2023-03-14T03:55:55;2.57;;;2.37;;
21438;SDS011;10880;50.302;18.736;2023-03-14T03:58:22;2.80;;;2.50;;
21438;SDS011;10880;50.302;18.736;2023-03-14T04:00:49;2.83;;;2.50;;
21438;SDS011;10880;50.302;18.736;2023-03-14T04:03:15;2.97;;;2.43;;
21438;SDS011;10880;50.302;18.736;2023-03-14T04:05:42;2.57;;;2.27;;
21438;SDS011;10880;50.302;18.736;2023-03-14T04:08:10;3.37;;;2.60;;
21438;SDS011;10880;50.302;18.736;2023-03-14T04:10:37;4.03;;;2.97;;
21438;SDS011;10880;50.302;18.736;2023-03-14T04:13:15;4.43;;;3.13;;
21438;SDS011;10880;50.302;18.736;2023-03-14T04:15:47;4.50;;;3.10;;
21438;SDS011;10880;50.302;18.736;2023-03-14T04:18:25;3.57;;;2.50;;
21438;SDS011;10880;50.302;18.736;2023-03-14T04:20:53;5.97;;;2.63;;
21438;SDS011;10880;50.302;18.736;2023-03-14T04:23:22;3.13;;;2.40;;
21438;SDS011;10880;50.302;18.736;2023-03-14T04:25:50;3.70;;;2.53;;
21438;SDS011;10880;50.302;18.736;2023-03-14T04:28:21;3.23;;;2.80;;
21438;SDS011;10880;50.302;18.736;2023-03-14T04:30:48;3.43;;;2.40;;
21438;SDS011;10880;50.302;18.736;2023-03-14T04:33:19;3.40;;;2.47;;
21438;SDS011;10880;50.302;18.736;2023-03-14T04:35:52;2.90;;;2.40;;
21438;SDS011;10880;50.302;18.736;2023-03-14T04:38:20;6.03;;;3.50;;
21438;SDS011;10880;50.302;18.736;2023-03-14T04:40:48;4.77;;;2.97;;
21438;SDS011;10880;50.302;18.736;2023-03-14T04:43:16;4.30;;;2.90;;
21438;SDS011;10880;50.302;18.736;2023-03-14T04:45:54;3.57;;;2.60;;
21438;SDS011;10880;50.302;18.736;2023-03-14T04:48:22;3.00;;;2.53;;
21438;SDS011;10880;50.302;18.736;2023-03-14T04:50:49;5.13;;;2.83;;
21438;SDS011;10880;50.302;18.736;2023-03-14T04:53:16;5.20;;;3.60;;
21438;SDS011;10880;50.302;18.736;2023-03-14T04:55:51;5.43;;;3.23;;
21438;SDS011;10880;50.302;18.736;2023-03-14T04:58:19;6.77;;;3.80;;
21438;SDS011;10880;50.302;18.736;2023-03-14T05:00:48;5.27;;;3.27;;
21438;SDS011;10880;50.302;18.736;2023-03-14T05:03:32;6.23;;;3.53;;
21438;SDS011;10880;50.302;18.736;2023-03-14T05:06:21;5.23;;;3.40;;
21438;SDS011;10880;50.302;18.736;2023-03-14T05:09:06;4.80;;;3.30;;
21438;SDS011;10880;50.302;18.736;2023-03-14T05:12:01;6.03;;;3.57;;
21438;SDS011;10880;50.302;18.736;2023-03-14T05:14:54;6.90;;;4.40;;
21438;SDS011;10880;50.302;18.736;2023-03-14T05:17:40;8.47;;;4.50;;
21438;SDS011;10880;50.302;18.736;2023-03-14T05:20:45;6.70;;;4.00;;
21438;SDS011;10880;50.302;18.736;2023-03-14T05:23:45;8.73;;;3.90;;
21438;SDS011;10880;50.302;18.736;2023-03-14T05:26:41;10.40;;;5.00;;
21438;SDS011;10880;50.302;18.736;2023-03-14T05:29:40;9.30;;;4.83;;
21438;SDS011;10880;50.302;18.736;2023-03-14T05:32:26;9.37;;;5.00;;
21438;SDS011;10880;50.302;18.736;2023-03-14T05:34:59;6.97;;;3.77;;
21438;SDS011;10880;50.302;18.736;2023-03-14T05:37:49;6.50;;;3.80;;
21438;SDS011;10880;50.302;18.736;2023-03-14T05:40:36;6.90;;;3.67;;
21438;SDS011;10880;50.302;18.736;2023-03-14T05:43:23;6.57;;;3.73;;
21438;SDS011;10880;50.302;18.736;2023-03-14T05:46:10;6.80;;;3.43;;
21438;SDS011;10880;50.302;18.736;2023-03-14T05:49:03;7.67;;;3.57;;
21438;SDS011;10880;50.302;18.736;2023-03-14T05:51:42;5.63;;;3.10;;
21438;SDS011;10880;50.302;18.736;2023-03-14T05:54:26;5.20;;;3.37;;
21438;SDS011;10880;50.302;18.736;2023-03-14T05:56:53;8.30;;;3.73;;
21438;SDS011;10880;50.302;18.736;2023-03-14T05:59:46;8.30;;;4.57;;
21438;SDS011;10880;50.302;18.736;2023-03-14T06:02:32;10.43;;;4.70;;
21438;SDS011;10880;50.302;18.736;2023-03-14T06:05:07;8.50;;;4.10;;
21438;SDS011;10880;50.302;18.736;2023-03-14T06:07:35;7.37;;;3.73;;
21438;SDS011;10880;50.302;18.736;2023-03-14T06:10:04;9.03;;;4.33;;
21438;SDS011;10880;50.302;18.736;2023-03-14T06:12:32;11.60;;;6.07;;
21438;SDS011;10880;50.302;18.736;2023-03-14T06:14:58;12.47;;;5.90;;
21438;SDS011;10880;50.302;18.736;2023-03-14T06:17:25;9.27;;;4.77;;
21438;SDS011;10880;50.302;18.736;2023-03-14T06:20:00;16.40;;;6.67;;
21438;SDS011;10880;50.302;18.736;2023-03-14T06:22:29;12.47;;;6.27;;
21438;SDS011;10880;50.302;18.736;2023-03-14T06:24:56;12.87;;;6.57;;
21438;SDS011;10880;50.302;18.736;2023-03-14T06:27:24;12.10;;;6.30;;
21438;SDS011;10880;50.302;18.736;2023-03-14T06:29:53;11.73;;;6.33;;
21438;SDS011;10880;50.302;18.736;2023-03-14T06:32:20;10.63;;;5.47;;
21438;SDS011;10880;50.302;18.736;2023-03-14T06:34:50;12.00;;;5.33;;
21438;SDS011;10880;50.302;18.736;2023-03-14T06:37:18;11.07;;;4.80;;
21438;SDS011;10880;50.302;18.736;2023-03-14T06:39:46;7.20;;;4.30;;
21438;SDS011;10880;50.302;18.736;2023-03-14T06:42:22;8.43;;;4.57;;
21438;SDS011;10880;50.302;18.736;2023-03-14T06:44:51;11.33;;;5.73;;
21438;SDS011;10880;50.302;18.736;2023-03-14T06:47:17;15.20;;;6.63;;
21438;SDS011;10880;50.302;18.736;2023-03-14T06:49:45;11.90;;;5.97;;
21438;SDS011;10880;50.302;18.736;2023-03-14T06:52:13;9.27;;;5.17;;
21438;SDS011;10880;50.302;18.736;2023-03-14T06:54:39;10.30;;;5.47;;
21438;SDS011;10880;50.302;18.736;2023-03-14T06:57:06;14.90;;;6.20;;
21438;SDS011;10880;50.302;18.736;2023-03-14T06:59:36;9.83;;;4.83;;
21438;SDS011;10880;50.302;18.736;2023-03-14T07:02:03;11.50;;;5.43;;
21438;SDS011;10880;50.302;18.736;2023-03-14T07:04:29;9.97;;;4.50;;
21438;SDS011;10880;50.302;18.736;2023-03-14T07:06:58;10.47;;;5.17;;
21438;SDS011;10880;50.302;18.736;2023-03-14T07:09:25;9.23;;;3.80;;
21438;SDS011;10880;50.302;18.736;2023-03-14T07:11:57;7.53;;;3.87;;
21438;SDS011;10880;50.302;18.736;2023-03-14T07:14:27;6.77;;;3.60;;
21438;SDS011;10880;50.302;18.736;2023-03-14T07:16:54;5.67;;;3.20;;
21438;SDS011;10880;50.302;18.736;2023-03-14T07:19:21;4.80;;;3.20;;
21438;SDS011;10880;50.302;18.736;2023-03-14T07:21:47;6.07;;;3.73;;
21438;SDS011;10880;50.302;18.736;2023-03-14T07:24:19;6.33;;;3.87;;
21438;SDS011;10880;50.302;18.736;2023-03-14T07:26:46;10.17;;;5.60;;
21438;SDS011;10880;50.302;18.736;2023-03-14T07:29:13;9.63;;;5.47;;
21438;SDS011;10880;50.302;18.736;2023-03-14T07:31:41;10.20;;;4.77;;
21438;SDS011;10880;50.302;18.736;2023-03-14T07:34:08;7.50;;;4.90;;
21438;SDS011;10880;50.302;18.736;2023-03-14T07:36:39;9.00;;;4.67;;
21438;SDS011;10880;50.302;18.736;2023-03-14T07:39:06;5.87;;;4.00;;
21438;SDS011;10880;50.302;18.736;2023-03-14T07:41:42;8.17;;;3.83;;
21438;SDS011;10880;50.302;18.736;2023-03-14T07:44:24;6.33;;;4.20;;
21438;SDS011;10880;50.302;18.736;2023-03-14T07:46:51;5.33;;;3.80;;
21438;SDS011;10880;50.302;18.736;2023-03-14T07:49:18;6.00;;;4.20;;
21438;SDS011;10880;50.302;18.736;2023-03-14T07:51:48;6.00;;;4.00;;
21438;SDS011;10880;50.302;18.736;2023-03-14T07:54:16;5.43;;;3.80;;
21438;SDS011;10880;50.302;18.736;2023-03-14T07:56:42;5.37;;;3.90;;
21438;SDS011;10880;50.302;18.736;2023-03-14T07:59:09;4.60;;;3.43;;
21438;SDS011;10880;50.302;18.736;2023-03-14T08:01:37;5.23;;;4.07;;
21438;SDS011;10880;50.302;18.736;2023-03-14T08:04:04;5.80;;;3.27;;
21438;SDS011;10880;50.302;18.736;2023-03-14T08:06:30;5.13;;;3.30;;
21438;SDS011;10880;50.302;18.736;2023-03-14T08:08:57;4.60;;;3.10;;
21438;SDS011;10880;50.302;18.736;2023-03-14T08:11:24;4.97;;;3.20;;
21438;SDS011;10880;50.302;18.736;2023-03-14T08:13:51;4.93;;;3.03;;
21438;SDS011;10880;50.302;18.736;2023-03-14T08:16:18;4.93;;;3.33;;
21438;SDS011;10880;50.302;18.736;2023-03-14T08:18:45;5.33;;;3.33;;
21438;SDS011;10880;50.302;18.736;2023-03-14T08:21:12;7.90;;;3.77;;
21438;SDS011;10880;50.302;18.736;2023-03-14T08:23:41;5.83;;;3.77;;
21438;SDS011;10880;50.302;18.736;2023-03-14T08:26:08;6.23;;;3.47;;
21438;SDS011;10880;50.302;18.736;2023-03-14T08:28:35;6.77;;;3.80;;
21438;SDS011;10880;50.302;18.736;2023-03-14T08:31:01;4.97;;;3.10;;
21438;SDS011;10880;50.302;18.736;2023-03-14T08:33:28;5.83;;;2.90;;
21438;SDS011;10880;50.302;18.736;2023-03-14T08:35:56;6.10;;;3.47;;
21438;SDS011;10880;50.302;18.736;2023-03-14T08:38:24;9.33;;;5.00;;
21438;SDS011;10880;50.302;18.736;2023-03-14T08:40:55;6.30;;;3.83;;
21438;SDS011;10880;50.302;18.736;2023-03-14T08:43:23;6.00;;;3.80;;
21438;SDS011;10880;50.302;18.736;2023-03-14T08:45:49;7.77;;;4.53;;
21438;SDS011;10880;50.302;18.736;2023-03-14T08:48:16;4.43;;;3.30;;
21438;SDS011;10880;50.302;18.736;2023-03-14T08:50:45;4.87;;;3.20;;
21438;SDS011;10880;50.302;18.736;2023-03-14T08:53:14;3.93;;;3.10;;
21438;SDS011;10880;50.302;18.736;2023-03-14T08:55:41;5.43;;;3.00;;
21438;SDS011;10880;50.302;18.736;2023-03-14T08:58:07;4.33;;;3.10;;
21438;SDS011;10880;50.302;18.736;2023-03-14T09:00:34;5.53;;;3.77;;
21438;SDS011;10880;50.302;18.736;2023-03-14T09:03:01;6.00;;;3.67;;
21438;SDS011;10880;50.302;18.736;2023-03-14T09:05:28;4.70;;;3.37;;
21438;SDS011;10880;50.302;18.736;2023-03-14T09:07:55;4.40;;;3.30;;
21438;SDS011;10880;50.302;18.736;2023-03-14T09:10:21;4.83;;;3.27;;
21438;SDS011;10880;50.302;18.736;2023-03-14T09:12:48;4.90;;;3.17;;
21438;SDS011;10880;50.302;18.736;2023-03-14T09:15:15;3.17;;;2.77;;
21438;SDS011;10880;50.302;18.736;2023-03-14T09:17:42;4.50;;;3.10;;
21438;SDS011;10880;50.302;18.736;2023-03-14T09:20:10;4.70;;;3.30;;
21438;SDS011;10880;50.302;18.736;2023-03-14T09:22:39;4.93;;;2.87;;
21438;SDS011;10880;50.302;18.736;2023-03-14T09:25:09;3.90;;;2.70;;
21438;SDS011;10880;50.302;18.736;2023-03-14T09:27:36;3.30;;;2.93;;
21438;SDS011;10880;50.302;18.736;2023-03-14T09:30:03;5.60;;;3.53;;
21438;SDS011;10880;50.302;18.736;2023-03-14T09:32:30;21.57;;;10.80;;
21438;SDS011;10880;50.302;18.736;2023-03-14T09:34:57;33.00;;;18.30;;
21438;SDS011;10880;50.302;18.736;2023-03-14T09:37:24;19.50;;;11.43;;
21438;SDS011;10880;50.302;18.736;2023-03-14T09:39:51;12.60;;;8.27;;
21438;SDS011;10880;50.302;18.736;2023-03-14T09:42:18;9.67;;;6.27;;
21438;SDS011;10880;50.302;18.736;2023-03-14T09:44:59;6.60;;;4.50;;
21438;SDS011;10880;50.302;18.736;2023-03-14T09:47:31;6.07;;;3.70;;
21438;SDS011;10880;50.302;18.736;2023-03-14T09:49:59;4.97;;;3.70;;
21438;SDS011;10880;50.302;18.736;2023-03-14T09:52:31;3.87;;;2.80;;
21438;SDS011;10880;50.302;18.736;2023-03-14T09:55:00;3.50;;;2.70;;
21438;SDS011;10880;50.302;18.736;2023-03-14T09:57:32;3.77;;;3.30;;
21438;SDS011;10880;50.302;18.736;2023-03-14T10:00:20;3.30;;;2.70;;
21438;SDS011;10880;50.302;18.736;2023-03-14T10:02:52;6.97;;;4.10;;
21438;SDS011;10880;50.302;18.736;2023-03-14T10:05:46;5.50;;;3.20;;
21438;SDS011;10880;50.302;18.736;2023-03-14T10:08:13;4.57;;;3.20;;
21438;SDS011;10880;50.302;18.736;2023-03-14T10:10:40;4.47;;;2.90;;
21438;SDS011;10880;50.302;18.736;2023-03-14T10:13:14;4.97;;;3.10;;
21438;SDS011;10880;50.302;18.736;2023-03-14T10:15:41;4.50;;;2.93;;
21438;SDS011;10880;50.302;18.736;2023-03-14T10:18:12;3.93;;;3.00;;
21438;SDS011;10880;50.302;18.736;2023-03-14T10:20:40;3.87;;;2.90;;
21438;SDS011;10880;50.302;18.736;2023-03-14T10:25:45;3.67;;;2.60;;
21438;SDS011;10880;50.302;18.736;2023-03-14T10:28:25;3.53;;;2.63;;
21438;SDS011;10880;50.302;18.736;2023-03-14T10:30:57;2.67;;;2.30;;
21438;SDS011;10880;50.302;18.736;2023-03-14T10:33:31;6.67;;;3.00;;
21438;SDS011;10880;50.302;18.736;2023-03-14T10:38:33;3.80;;;2.30;;
21438;SDS011;10880;50.302;18.736;2023-03-14T10:41:00;2.73;;;2.30;;
21438;SDS011;10880;50.302;18.736;2023-03-14T10:48:35;3.30;;;2.93;;
21438;SDS011;10880;50.302;18.736;2023-03-14T10:51:10;4.30;;;2.87;;
21438;SDS011;10880;50.302;18.736;2023-03-14T10:53:47;4.30;;;3.00;;
21438;SDS011;10880;50.302;18.736;2023-03-14T10:56:19;5.57;;;4.00;;
21438;SDS011;10880;50.302;18.736;2023-03-14T10:58:48;3.70;;;3.20;;
21438;SDS011;10880;50.302;18.736;2023-03-14T11:01:28;3.47;;;2.77;;
21438;SDS011;10880;50.302;18.736;2023-03-14T11:09:50;3.77;;;3.00;;
21438;SDS011;10880;50.302;18.736;2023-03-14T11:12:46;5.03;;;3.20;;
21438;SDS011;10880;50.302;18.736;2023-03-14T11:31:47;4.27;;;2.90;;
21438;SDS011;10880;50.302;18.736;2023-03-14T11:34:22;3.77;;;2.90;;
21438;SDS011;10880;50.302;18.736;2023-03-14T11:37:06;2.70;;;2.43;;
21438;SDS011;10880;50.302;18.736;2023-03-14T11:39:40;2.77;;;2.40;;
21438;SDS011;10880;50.302;18.736;2023-03-14T11:42:11;2.30;;;2.10;;
21438;SDS011;10880;50.302;18.736;2023-03-14T11:44:39;2.40;;;2.20;;
21438;SDS011;10880;50.302;18.736;2023-03-14T11:49:42;2.70;;;2.13;;
21438;SDS011;10880;50.302;18.736;2023-03-14T11:52:41;3.10;;;2.40;;
21438;SDS011;10880;50.302;18.736;2023-03-14T11:55:28;1.90;;;1.80;;
21438;SDS011;10880;50.302;18.736;2023-03-14T11:58:23;2.60;;;2.40;;
21438;SDS011;10880;50.302;18.736;2023-03-14T12:00:55;2.20;;;2.00;;
21438;SDS011;10880;50.302;18.736;2023-03-14T12:03:26;2.70;;;2.40;;
21438;SDS011;10880;50.302;18.736;2023-03-14T12:08:37;2.80;;;2.40;;
21438;SDS011;10880;50.302;18.736;2023-03-14T12:11:09;2.40;;;2.20;;
21438;SDS011;10880;50.302;18.736;2023-03-14T12:13:38;3.07;;;2.40;;
21438;SDS011;10880;50.302;18.736;2023-03-14T12:16:06;2.33;;;2.13;;
21438;SDS011;10880;50.302;18.736;2023-03-14T12:18:45;2.33;;;2.13;;
21438;SDS011;10880;50.302;18.736;2023-03-14T12:21:12;2.40;;;2.20;;
21438;SDS011;10880;50.302;18.736;2023-03-14T12:23:52;2.47;;;2.10;;
21438;SDS011;10880;50.302;18.736;2023-03-14T12:26:21;2.67;;;2.47;;
21438;SDS011;10880;50.302;18.736;2023-03-14T12:29:16;2.77;;;2.17;;
21438;SDS011;10880;50.302;18.736;2023-03-14T12:31:45;2.97;;;2.40;;
21438;SDS011;10880;50.302;18.736;2023-03-14T12:41:51;2.13;;;1.93;;
21438;SDS011;10880;50.302;18.736;2023-03-14T12:46:55;3.87;;;2.73;;
21438;SDS011;10880;50.302;18.736;2023-03-14T12:49:29;2.70;;;2.50;;
21438;SDS011;10880;50.302;18.736;2023-03-14T12:52:00;3.30;;;2.43;;
21438;SDS011;10880;50.302;18.736;2023-03-14T12:57:27;3.50;;;2.80;;
21438;SDS011;10880;50.302;18.736;2023-03-14T13:00:39;4.30;;;2.90;;
21438;SDS011;10880;50.302;18.736;2023-03-14T13:03:02;3.20;;;2.67;;
21438;SDS011;10880;50.302;18.736;2023-03-14T13:05:45;4.53;;;3.10;;
21438;SDS011;10880;50.302;18.736;2023-03-14T13:11:22;2.80;;;2.50;;
21438;SDS011;10880;50.302;18.736;2023-03-14T13:13:56;3.20;;;2.63;;
21438;SDS011;10880;50.302;18.736;2023-03-14T13:16:25;4.83;;;3.20;;
21438;SDS011;10880;50.302;18.736;2023-03-14T13:19:03;3.67;;;2.70;;
21438;SDS011;10880;50.302;18.736;2023-03-14T13:21:41;3.80;;;3.10;;
21438;SDS011;10880;50.302;18.736;2023-03-14T13:24:21;3.50;;;2.60;;
21438;SDS011;10880;50.302;18.736;2023-03-14T13:26:55;3.33;;;2.50;;
21438;SDS011;10880;50.302;18.736;2023-03-14T13:29:24;5.13;;;3.23;;
21438;SDS011;10880;50.302;18.736;2023-03-14T13:31:58;3.43;;;2.77;;
21438;SDS011;10880;50.302;18.736;2023-03-14T13:36:53;5.10;;;3.17;;
21438;SDS011;10880;50.302;18.736;2023-03-14T13:39:21;5.57;;;3.33;;
21438;SDS011;10880;50.302;18.736;2023-03-14T13:41:51;3.93;;;3.30;;
21438;SDS011;10880;50.302;18.736;2023-03-14T13:44:23;4.27;;;3.13;;
21438;SDS011;10880;50.302;18.736;2023-03-14T13:46:57;5.00;;;2.60;;
21438;SDS011;10880;50.302;18.736;2023-03-14T13:49:29;2.80;;;2.50;;
21438;SDS011;10880;50.302;18.736;2023-03-14T13:52:02;3.83;;;3.00;;
21438;SDS011;10880;50.302;18.736;2023-03-14T13:54:32;5.80;;;4.03;;
21438;SDS011;10880;50.302;18.736;2023-03-14T13:57:02;5.27;;;3.47;;
21438;SDS011;10880;50.302;18.736;2023-03-14T13:59:34;5.03;;;3.37;;
21438;SDS011;10880;50.302;18.736;2023-03-14T14:02:03;6.13;;;3.40;;
21438;SDS011;10880;50.302;18.736;2023-03-14T14:04:40;4.33;;;3.27;;
21438;SDS011;10880;50.302;18.736;2023-03-14T14:07:08;5.83;;;3.97;;
21438;SDS011;10880;50.302;18.736;2023-03-14T14:09:38;10.07;;;5.73;;
21438;SDS011;10880;50.302;18.736;2023-03-14T14:12:13;5.67;;;4.47;;
21438;SDS011;10880;50.302;18.736;2023-03-14T14:14:46;8.90;;;6.27;;
21438;SDS011;10880;50.302;18.736;2023-03-14T14:17:39;9.50;;;6.70;;
21438;SDS011;10880;50.302;18.736;2023-03-14T14:20:20;12.43;;;7.37;;
21438;SDS011;10880;50.302;18.736;2023-03-14T14:22:50;10.73;;;7.00;;
21438;SDS011;10880;50.302;18.736;2023-03-14T14:25:18;7.63;;;5.40;;
21438;SDS011;10880;50.302;18.736;2023-03-14T14:27:47;8.73;;;5.20;;
21438;SDS011;10880;50.302;18.736;2023-03-14T14:32:49;10.83;;;6.50;;
21438;SDS011;10880;50.302;18.736;2023-03-14T14:35:23;13.67;;;7.30;;
21438;SDS011;10880;50.302;18.736;2023-03-14T14:37:51;13.77;;;7.83;;
21438;SDS011;10880;50.302;18.736;2023-03-14T14:42:45;11.77;;;6.50;;
21438;SDS011;10880;50.302;18.736;2023-03-14T14:45:21;8.13;;;5.10;;
21438;SDS011;10880;50.302;18.736;2023-03-14T14:50:32;7.10;;;4.53;;
21438;SDS011;10880;50.302;18.736;2023-03-14T14:53:26;5.17;;;3.90;;
21438;SDS011;10880;50.302;18.736;2023-03-14T14:55:57;8.77;;;6.23;;
21438;SDS011;10880;50.302;18.736;2023-03-14T14:58:29;15.80;;;8.50;;
21438;SDS011;10880;50.302;18.736;2023-03-14T15:01:05;13.30;;;7.33;;
21438;SDS011;10880;50.302;18.736;2023-03-14T15:03:37;9.90;;;6.83;;
21438;SDS011;10880;50.302;18.736;2023-03-14T15:06:08;7.87;;;5.40;;
21438;SDS011;10880;50.302;18.736;2023-03-14T15:08:37;9.67;;;6.03;;
21438;SDS011;10880;50.302;18.736;2023-03-14T15:11:04;13.77;;;7.37;;
21438;SDS011;10880;50.302;18.736;2023-03-14T15:13:31;7.40;;;5.17;;
21438;SDS011;10880;50.302;18.736;2023-03-14T15:15:58;9.10;;;6.03;;
21438;SDS011;10880;50.302;18.736;2023-03-14T15:18:25;5.97;;;4.97;;
21438;SDS011;10880;50.302;18.736;2023-03-14T15:20:56;9.27;;;5.70;;
21438;SDS011;10880;50.302;18.736;2023-03-14T15:23:26;6.13;;;4.30;;
21438;SDS011;10880;50.302;18.736;2023-03-14T15:25:55;6.67;;;4.83;;
21438;SDS011;10880;50.302;18.736;2023-03-14T15:28:23;9.20;;;5.13;;
21438;SDS011;10880;50.302;18.736;2023-03-14T15:30:54;9.23;;;5.70;;
21438;SDS011;10880;50.302;18.736;2023-03-14T15:33:23;6.30;;;4.50;;
21438;SDS011;10880;50.302;18.736;2023-03-14T15:35:56;9.80;;;5.97;;
21438;SDS011;10880;50.302;18.736;2023-03-14T15:38:23;10.07;;;6.30;;
21438;SDS011;10880;50.302;18.736;2023-03-14T15:40:50;14.60;;;7.40;;
21438;SDS011;10880;50.302;18.736;2023-03-14T15:43:18;11.57;;;5.93;;
21438;SDS011;10880;50.302;18.736;2023-03-14T15:45:45;10.53;;;5.77;;
21438;SDS011;10880;50.302;18.736;2023-03-14T15:48:19;9.50;;;5.40;;
21438;SDS011;10880;50.302;18.736;2023-03-14T15:50:50;7.10;;;4.53;;
21438;SDS011;10880;50.302;18.736;2023-03-14T15:53:16;5.77;;;3.73;;
21438;SDS011;10880;50.302;18.736;2023-03-14T15:55:43;6.00;;;3.63;;
21438;SDS011;10880;50.302;18.736;2023-03-14T15:58:16;6.57;;;3.63;;
21438;SDS011;10880;50.302;18.736;2023-03-14T16:00:44;7.83;;;4.17;;
21438;SDS011;10880;50.302;18.736;2023-03-14T16:03:11;6.33;;;3.93;;
21438;SDS011;10880;50.302;18.736;2023-03-14T16:05:40;4.93;;;3.30;;
21438;SDS011;10880;50.302;18.736;2023-03-14T16:08:07;4.93;;;3.37;;
21438;SDS011;10880;50.302;18.736;2023-03-14T16:10:34;4.37;;;3.00;;